Terminal Aerodrome Forecast
Issued by NWS

Home | Current Version | Previous Version | Text Only | Print | Product List | Glossary On
Versions: 1 2 3 4 5 6 7 8 9 10 11 12 13 14 15 16 17 18 19 20 21 22 23 24 25 26 27 28 29 30 31 32 33 34 35 36 37 38 39 40
000
FTUS43 KDTX 200500
TAFPTK
TAF
KPTK 200526Z 2006/2106 16005KT P6SM SCT120 BKN250
     FM200800 VRB03KT 3SM BR BKN250
     FM201000 VRB03KT 1SM BR BKN007
     FM201200 23005KT 3SM BR BKN020
     FM201400 25007KT P6SM BKN035
     FM201900 28007KT 6SM -SHRA OVC045
     FM210100 25005KT P6SM SCT045 BKN120=

USA.gov is the U.S. government's official web portal to all federal, state and local government web resources and services.